sensor_id;sensor_type;location;lat;lon;timestamp;P1;durP1;ratioP1;P2;durP2;ratioP2
45642;SDS011;31358;46.008;11.144;2024-03-02T00:02:04;3.25;;;0.63;;
45642;SDS011;31358;46.008;11.144;2024-03-02T00:04:32;3.17;;;1.20;;
45642;SDS011;31358;46.008;11.144;2024-03-02T00:06:57;4.05;;;0.90;;
45642;SDS011;31358;46.008;11.144;2024-03-02T00:09:23;5.93;;;1.05;;
45642;SDS011;31358;46.008;11.144;2024-03-02T00:11:49;8.20;;;1.20;;
45642;SDS011;31358;46.008;11.144;2024-03-02T00:14:16;2.78;;;0.85;;
45642;SDS011;31358;46.008;11.144;2024-03-02T00:16:42;5.10;;;0.95;;
45642;SDS011;31358;46.008;11.144;2024-03-02T00:19:08;5.55;;;1.80;;
45642;SDS011;31358;46.008;11.144;2024-03-02T00:21:34;5.15;;;1.50;;
45642;SDS011;31358;46.008;11.144;2024-03-02T00:24:01;2.92;;;1.55;;
45642;SDS011;31358;46.008;11.144;2024-03-02T00:26:54;5.72;;;1.38;;
45642;SDS011;31358;46.008;11.144;2024-03-02T00:29:19;9.18;;;1.65;;
45642;SDS011;31358;46.008;11.144;2024-03-02T00:31:46;3.90;;;1.27;;
45642;SDS011;31358;46.008;11.144;2024-03-02T00:34:13;3.63;;;1.00;;
45642;SDS011;31358;46.008;11.144;2024-03-02T00:36:41;4.72;;;1.23;;
45642;SDS011;31358;46.008;11.144;2024-03-02T00:39:07;4.82;;;2.17;;
45642;SDS011;31358;46.008;11.144;2024-03-02T00:41:32;4.40;;;1.17;;
45642;SDS011;31358;46.008;11.144;2024-03-02T00:46:29;3.47;;;0.95;;
45642;SDS011;31358;46.008;11.144;2024-03-02T00:48:59;6.57;;;1.85;;
45642;SDS011;31358;46.008;11.144;2024-03-02T00:51:27;7.55;;;1.10;;
45642;SDS011;31358;46.008;11.144;2024-03-02T00:53:59;4.50;;;1.08;;
45642;SDS011;31358;46.008;11.144;2024-03-02T00:56:32;5.30;;;1.38;;
45642;SDS011;31358;46.008;11.144;2024-03-02T00:58:59;5.63;;;1.30;;
45642;SDS011;31358;46.008;11.144;2024-03-02T01:01:25;2.28;;;0.80;;
45642;SDS011;31358;46.008;11.144;2024-03-02T01:03:52;5.88;;;1.15;;
45642;SDS011;31358;46.008;11.144;2024-03-02T01:06:17;4.05;;;1.30;;
45642;SDS011;31358;46.008;11.144;2024-03-02T01:08:44;5.20;;;1.00;;
45642;SDS011;31358;46.008;11.144;2024-03-02T01:11:11;6.15;;;1.70;;
45642;SDS011;31358;46.008;11.144;2024-03-02T01:13:36;6.63;;;1.20;;
45642;SDS011;31358;46.008;11.144;2024-03-02T01:16:02;4.25;;;1.20;;
45642;SDS011;31358;46.008;11.144;2024-03-02T01:18:29;5.03;;;1.08;;
45642;SDS011;31358;46.008;11.144;2024-03-02T01:20:55;5.00;;;2.45;;
45642;SDS011;31358;46.008;11.144;2024-03-02T01:23:24;5.43;;;1.55;;
45642;SDS011;31358;46.008;11.144;2024-03-02T01:25:51;6.03;;;1.00;;
45642;SDS011;31358;46.008;11.144;2024-03-02T01:28:17;10.90;;;1.70;;
45642;SDS011;31358;46.008;11.144;2024-03-02T01:30:44;5.25;;;1.50;;
45642;SDS011;31358;46.008;11.144;2024-03-02T01:33:10;7.75;;;1.58;;
45642;SDS011;31358;46.008;11.144;2024-03-02T01:35:36;8.57;;;1.30;;
45642;SDS011;31358;46.008;11.144;2024-03-02T01:38:02;6.95;;;1.48;;
45642;SDS011;31358;46.008;11.144;2024-03-02T01:40:28;10.05;;;1.83;;
45642;SDS011;31358;46.008;11.144;2024-03-02T01:42:54;6.22;;;2.10;;
45642;SDS011;31358;46.008;11.144;2024-03-02T01:45:20;6.25;;;1.10;;
45642;SDS011;31358;46.008;11.144;2024-03-02T01:47:46;5.40;;;1.20;;
45642;SDS011;31358;46.008;11.144;2024-03-02T01:50:13;8.43;;;2.20;;
45642;SDS011;31358;46.008;11.144;2024-03-02T01:52:39;7.10;;;1.23;;
45642;SDS011;31358;46.008;11.144;2024-03-02T01:55:05;8.52;;;1.65;;
45642;SDS011;31358;46.008;11.144;2024-03-02T01:57:32;6.55;;;1.42;;
45642;SDS011;31358;46.008;11.144;2024-03-02T01:59:59;4.85;;;1.48;;
45642;SDS011;31358;46.008;11.144;2024-03-02T02:02:25;7.63;;;1.50;;
45642;SDS011;31358;46.008;11.144;2024-03-02T02:04:51;5.55;;;1.20;;
45642;SDS011;31358;46.008;11.144;2024-03-02T02:07:17;3.65;;;1.50;;
45642;SDS011;31358;46.008;11.144;2024-03-02T02:09:43;6.63;;;1.50;;
45642;SDS011;31358;46.008;11.144;2024-03-02T02:12:11;6.45;;;1.70;;
45642;SDS011;31358;46.008;11.144;2024-03-02T02:14:37;10.77;;;1.20;;
45642;SDS011;31358;46.008;11.144;2024-03-02T02:17:04;4.25;;;1.75;;
45642;SDS011;31358;46.008;11.144;2024-03-02T02:19:30;5.25;;;1.20;;
45642;SDS011;31358;46.008;11.144;2024-03-02T02:21:56;6.95;;;1.70;;
45642;SDS011;31358;46.008;11.144;2024-03-02T02:24:21;6.00;;;1.98;;
45642;SDS011;31358;46.008;11.144;2024-03-02T02:26:47;6.30;;;1.75;;
45642;SDS011;31358;46.008;11.144;2024-03-02T02:29:13;10.57;;;1.67;;
45642;SDS011;31358;46.008;11.144;2024-03-02T02:31:41;6.75;;;1.70;;
45642;SDS011;31358;46.008;11.144;2024-03-02T02:34:07;9.30;;;1.63;;
45642;SDS011;31358;46.008;11.144;2024-03-02T02:36:34;9.82;;;1.42;;
45642;SDS011;31358;46.008;11.144;2024-03-02T02:39:04;3.72;;;1.17;;
45642;SDS011;31358;46.008;11.144;2024-03-02T02:41:32;12.13;;;1.50;;
45642;SDS011;31358;46.008;11.144;2024-03-02T02:43:58;7.75;;;1.42;;
45642;SDS011;31358;46.008;11.144;2024-03-02T02:46:23;6.03;;;1.33;;
45642;SDS011;31358;46.008;11.144;2024-03-02T02:48:49;7.55;;;2.58;;
45642;SDS011;31358;46.008;11.144;2024-03-02T02:51:16;5.78;;;1.70;;
45642;SDS011;31358;46.008;11.144;2024-03-02T02:53:42;8.25;;;2.17;;
45642;SDS011;31358;46.008;11.144;2024-03-02T02:56:08;4.90;;;1.95;;
45642;SDS011;31358;46.008;11.144;2024-03-02T02:58:34;8.68;;;1.67;;
45642;SDS011;31358;46.008;11.144;2024-03-02T03:01:00;3.25;;;1.45;;
45642;SDS011;31358;46.008;11.144;2024-03-02T03:03:26;5.85;;;2.08;;
45642;SDS011;31358;46.008;11.144;2024-03-02T03:05:51;8.18;;;2.00;;
45642;SDS011;31358;46.008;11.144;2024-03-02T03:08:17;3.13;;;1.45;;
45642;SDS011;31358;46.008;11.144;2024-03-02T03:10:43;8.52;;;1.80;;
45642;SDS011;31358;46.008;11.144;2024-03-02T03:13:09;7.30;;;1.70;;
45642;SDS011;31358;46.008;11.144;2024-03-02T03:15:35;5.43;;;1.60;;
45642;SDS011;31358;46.008;11.144;2024-03-02T03:18:04;7.15;;;1.70;;
45642;SDS011;31358;46.008;11.144;2024-03-02T03:20:30;7.05;;;2.65;;
45642;SDS011;31358;46.008;11.144;2024-03-02T03:22:59;7.35;;;2.47;;
45642;SDS011;31358;46.008;11.144;2024-03-02T03:25:25;5.63;;;1.63;;
45642;SDS011;31358;46.008;11.144;2024-03-02T03:27:51;3.55;;;1.40;;
45642;SDS011;31358;46.008;11.144;2024-03-02T03:30:19;7.63;;;2.08;;
45642;SDS011;31358;46.008;11.144;2024-03-02T03:32:45;5.22;;;1.63;;
45642;SDS011;31358;46.008;11.144;2024-03-02T03:35:13;5.75;;;1.33;;
45642;SDS011;31358;46.008;11.144;2024-03-02T03:37:40;8.48;;;1.40;;
45642;SDS011;31358;46.008;11.144;2024-03-02T03:40:06;10.95;;;2.00;;
45642;SDS011;31358;46.008;11.144;2024-03-02T03:42:35;4.88;;;1.42;;
45642;SDS011;31358;46.008;11.144;2024-03-02T03:45:01;7.22;;;1.50;;
45642;SDS011;31358;46.008;11.144;2024-03-02T03:47:27;4.80;;;1.48;;
45642;SDS011;31358;46.008;11.144;2024-03-02T03:49:53;5.20;;;1.50;;
45642;SDS011;31358;46.008;11.144;2024-03-02T03:52:19;4.63;;;1.60;;
45642;SDS011;31358;46.008;11.144;2024-03-02T03:54:46;5.53;;;1.13;;
45642;SDS011;31358;46.008;11.144;2024-03-02T03:57:12;5.50;;;2.53;;
45642;SDS011;31358;46.008;11.144;2024-03-02T03:59:37;6.55;;;1.83;;
45642;SDS011;31358;46.008;11.144;2024-03-02T04:02:03;9.13;;;1.65;;
45642;SDS011;31358;46.008;11.144;2024-03-02T04:04:29;5.75;;;1.80;;
45642;SDS011;31358;46.008;11.144;2024-03-02T04:06:55;4.28;;;1.20;;
45642;SDS011;31358;46.008;11.144;2024-03-02T04:09:20;6.45;;;1.30;;
45642;SDS011;31358;46.008;11.144;2024-03-02T04:11:46;4.10;;;1.50;;
45642;SDS011;31358;46.008;11.144;2024-03-02T04:14:12;10.32;;;2.38;;
45642;SDS011;31358;46.008;11.144;2024-03-02T04:16:38;6.50;;;1.48;;
45642;SDS011;31358;46.008;11.144;2024-03-02T04:19:04;7.85;;;2.10;;
45642;SDS011;31358;46.008;11.144;2024-03-02T04:21:30;7.22;;;1.48;;
45642;SDS011;31358;46.008;11.144;2024-03-02T04:23:55;6.10;;;1.52;;
45642;SDS011;31358;46.008;11.144;2024-03-02T04:26:23;5.78;;;1.20;;
45642;SDS011;31358;46.008;11.144;2024-03-02T04:28:50;3.45;;;1.23;;
45642;SDS011;31358;46.008;11.144;2024-03-02T04:31:19;7.63;;;1.55;;
45642;SDS011;31358;46.008;11.144;2024-03-02T04:33:45;4.90;;;1.52;;
45642;SDS011;31358;46.008;11.144;2024-03-02T04:36:11;8.20;;;1.70;;
45642;SDS011;31358;46.008;11.144;2024-03-02T04:38:37;4.25;;;1.48;;
45642;SDS011;31358;46.008;11.144;2024-03-02T04:41:04;5.18;;;1.58;;
45642;SDS011;31358;46.008;11.144;2024-03-02T04:43:33;13.90;;;1.60;;
45642;SDS011;31358;46.008;11.144;2024-03-02T04:45:59;4.95;;;1.75;;
45642;SDS011;31358;46.008;11.144;2024-03-02T04:48:25;5.60;;;1.55;;
45642;SDS011;31358;46.008;11.144;2024-03-02T04:50:52;4.10;;;1.40;;
45642;SDS011;31358;46.008;11.144;2024-03-02T04:53:17;5.22;;;1.50;;
45642;SDS011;31358;46.008;11.144;2024-03-02T04:55:43;5.53;;;1.83;;
45642;SDS011;31358;46.008;11.144;2024-03-02T04:58:09;6.28;;;1.40;;
45642;SDS011;31358;46.008;11.144;2024-03-02T05:00:34;9.18;;;2.00;;
45642;SDS011;31358;46.008;11.144;2024-03-02T05:03:01;9.73;;;3.10;;
45642;SDS011;31358;46.008;11.144;2024-03-02T05:05:28;5.78;;;1.33;;
45642;SDS011;31358;46.008;11.144;2024-03-02T05:07:53;6.60;;;1.70;;
45642;SDS011;31358;46.008;11.144;2024-03-02T05:10:19;5.65;;;1.95;;
45642;SDS011;31358;46.008;11.144;2024-03-02T05:12:45;7.45;;;2.17;;
45642;SDS011;31358;46.008;11.144;2024-03-02T05:15:11;6.35;;;2.00;;
45642;SDS011;31358;46.008;11.144;2024-03-02T05:17:38;6.50;;;1.73;;
45642;SDS011;31358;46.008;11.144;2024-03-02T05:20:05;4.22;;;1.58;;
45642;SDS011;31358;46.008;11.144;2024-03-02T05:22:33;5.45;;;2.03;;
45642;SDS011;31358;46.008;11.144;2024-03-02T05:24:59;7.68;;;2.03;;
45642;SDS011;31358;46.008;11.144;2024-03-02T05:27:26;7.43;;;1.52;;
45642;SDS011;31358;46.008;11.144;2024-03-02T05:29:52;5.07;;;1.35;;
45642;SDS011;31358;46.008;11.144;2024-03-02T05:32:18;10.85;;;1.77;;
45642;SDS011;31358;46.008;11.144;2024-03-02T05:34:43;4.20;;;1.10;;
45642;SDS011;31358;46.008;11.144;2024-03-02T05:37:09;7.40;;;1.65;;
45642;SDS011;31358;46.008;11.144;2024-03-02T05:39:35;4.35;;;1.92;;
45642;SDS011;31358;46.008;11.144;2024-03-02T05:42:00;5.65;;;1.58;;
45642;SDS011;31358;46.008;11.144;2024-03-02T05:44:26;4.13;;;1.25;;
45642;SDS011;31358;46.008;11.144;2024-03-02T05:46:52;6.20;;;2.10;;
45642;SDS011;31358;46.008;11.144;2024-03-02T05:49:17;8.98;;;1.67;;
45642;SDS011;31358;46.008;11.144;2024-03-02T05:51:43;8.35;;;1.80;;
45642;SDS011;31358;46.008;11.144;2024-03-02T05:54:09;5.03;;;1.88;;
45642;SDS011;31358;46.008;11.144;2024-03-02T05:56:34;11.35;;;2.70;;
45642;SDS011;31358;46.008;11.144;2024-03-02T05:59:00;5.05;;;2.08;;
45642;SDS011;31358;46.008;11.144;2024-03-02T06:01:47;6.43;;;1.90;;
45642;SDS011;31358;46.008;11.144;2024-03-02T06:04:15;6.32;;;2.30;;
45642;SDS011;31358;46.008;11.144;2024-03-02T06:06:41;5.15;;;1.70;;
45642;SDS011;31358;46.008;11.144;2024-03-02T06:09:07;6.97;;;1.98;;
45642;SDS011;31358;46.008;11.144;2024-03-02T06:11:36;4.03;;;1.83;;
45642;SDS011;31358;46.008;11.144;2024-03-02T06:14:03;6.00;;;1.95;;
45642;SDS011;31358;46.008;11.144;2024-03-02T06:16:29;9.80;;;2.15;;
45642;SDS011;31358;46.008;11.144;2024-03-02T06:18:55;5.75;;;2.03;;
45642;SDS011;31358;46.008;11.144;2024-03-02T06:21:22;4.82;;;2.08;;
45642;SDS011;31358;46.008;11.144;2024-03-02T06:23:49;12.25;;;2.92;;
45642;SDS011;31358;46.008;11.144;2024-03-02T06:26:14;4.60;;;1.88;;
45642;SDS011;31358;46.008;11.144;2024-03-02T06:28:40;9.82;;;2.35;;
45642;SDS011;31358;46.008;11.144;2024-03-02T06:31:06;5.90;;;2.05;;
45642;SDS011;31358;46.008;11.144;2024-03-02T06:33:32;5.95;;;2.22;;
45642;SDS011;31358;46.008;11.144;2024-03-02T06:35:57;6.00;;;1.90;;
45642;SDS011;31358;46.008;11.144;2024-03-02T06:38:23;7.25;;;2.55;;
45642;SDS011;31358;46.008;11.144;2024-03-02T06:40:49;11.18;;;3.63;;
45642;SDS011;31358;46.008;11.144;2024-03-02T06:43:14;11.23;;;3.00;;
45642;SDS011;31358;46.008;11.144;2024-03-02T06:45:40;8.15;;;2.42;;
45642;SDS011;31358;46.008;11.144;2024-03-02T06:48:06;6.25;;;2.22;;
45642;SDS011;31358;46.008;11.144;2024-03-02T06:50:32;8.30;;;2.83;;
45642;SDS011;31358;46.008;11.144;2024-03-02T06:52:57;8.80;;;2.15;;
45642;SDS011;31358;46.008;11.144;2024-03-02T06:55:23;6.70;;;2.78;;
45642;SDS011;31358;46.008;11.144;2024-03-02T06:57:49;6.53;;;2.25;;
45642;SDS011;31358;46.008;11.144;2024-03-02T07:00:15;6.22;;;2.60;;
45642;SDS011;31358;46.008;11.144;2024-03-02T07:02:43;6.80;;;2.25;;
45642;SDS011;31358;46.008;11.144;2024-03-02T07:05:09;7.85;;;1.98;;
45642;SDS011;31358;46.008;11.144;2024-03-02T07:07:36;11.45;;;2.42;;
45642;SDS011;31358;46.008;11.144;2024-03-02T07:10:05;4.28;;;2.15;;
45642;SDS011;31358;46.008;11.144;2024-03-02T07:12:32;9.65;;;2.25;;
45642;SDS011;31358;46.008;11.144;2024-03-02T07:14:58;6.63;;;2.60;;
45642;SDS011;31358;46.008;11.144;2024-03-02T07:17:32;12.63;;;3.55;;
45642;SDS011;31358;46.008;11.144;2024-03-02T07:19:59;5.75;;;1.88;;
45642;SDS011;31358;46.008;11.144;2024-03-02T07:22:24;5.53;;;2.08;;
45642;SDS011;31358;46.008;11.144;2024-03-02T07:24:50;4.93;;;2.30;;
45642;SDS011;31358;46.008;11.144;2024-03-02T07:27:16;3.75;;;1.90;;
45642;SDS011;31358;46.008;11.144;2024-03-02T07:29:42;4.28;;;1.85;;
45642;SDS011;31358;46.008;11.144;2024-03-02T07:32:08;6.05;;;2.20;;
45642;SDS011;31358;46.008;11.144;2024-03-02T07:34:35;6.97;;;2.13;;
45642;SDS011;31358;46.008;11.144;2024-03-02T07:37:01;4.57;;;2.05;;
45642;SDS011;31358;46.008;11.144;2024-03-02T07:39:27;7.53;;;2.67;;
45642;SDS011;31358;46.008;11.144;2024-03-02T07:41:54;9.68;;;2.83;;
45642;SDS011;31358;46.008;11.144;2024-03-02T07:44:20;6.32;;;2.83;;
45642;SDS011;31358;46.008;11.144;2024-03-02T07:46:46;9.98;;;3.05;;
45642;SDS011;31358;46.008;11.144;2024-03-02T07:49:14;6.68;;;2.97;;
45642;SDS011;31358;46.008;11.144;2024-03-02T07:51:41;6.65;;;2.75;;
45642;SDS011;31358;46.008;11.144;2024-03-02T07:54:07;12.68;;;2.75;;
45642;SDS011;31358;46.008;11.144;2024-03-02T07:56:32;6.50;;;2.25;;
45642;SDS011;31358;46.008;11.144;2024-03-02T07:58:58;6.05;;;2.50;;
45642;SDS011;31358;46.008;11.144;2024-03-02T08:01:32;6.00;;;2.88;;
45642;SDS011;31358;46.008;11.144;2024-03-02T08:03:58;5.70;;;2.70;;
45642;SDS011;31358;46.008;11.144;2024-03-02T08:06:28;8.13;;;3.13;;
45642;SDS011;31358;46.008;11.144;2024-03-02T08:08:55;6.57;;;3.10;;
45642;SDS011;31358;46.008;11.144;2024-03-02T08:11:21;7.15;;;3.13;;
45642;SDS011;31358;46.008;11.144;2024-03-02T08:13:47;4.80;;;2.38;;
45642;SDS011;31358;46.008;11.144;2024-03-02T08:16:14;7.60;;;2.65;;
45642;SDS011;31358;46.008;11.144;2024-03-02T08:18:46;12.95;;;3.33;;
45642;SDS011;31358;46.008;11.144;2024-03-02T08:21:15;8.77;;;3.50;;
45642;SDS011;31358;46.008;11.144;2024-03-02T08:23:42;6.30;;;3.40;;
45642;SDS011;31358;46.008;11.144;2024-03-02T08:26:08;11.40;;;3.63;;
45642;SDS011;31358;46.008;11.144;2024-03-02T08:28:34;12.00;;;3.85;;
45642;SDS011;31358;46.008;11.144;2024-03-02T08:31:02;11.35;;;3.53;;
45642;SDS011;31358;46.008;11.144;2024-03-02T08:33:30;12.52;;;3.95;;
45642;SDS011;31358;46.008;11.144;2024-03-02T08:35:56;7.03;;;3.00;;
45642;SDS011;31358;46.008;11.144;2024-03-02T08:38:22;5.93;;;3.10;;
45642;SDS011;31358;46.008;11.144;2024-03-02T08:40:48;6.47;;;3.10;;
45642;SDS011;31358;46.008;11.144;2024-03-02T08:43:15;8.50;;;3.47;;
45642;SDS011;31358;46.008;11.144;2024-03-02T08:45:40;12.82;;;3.95;;
45642;SDS011;31358;46.008;11.144;2024-03-02T08:48:09;8.05;;;3.28;;
45642;SDS011;31358;46.008;11.144;2024-03-02T08:50:35;9.05;;;3.28;;
45642;SDS011;31358;46.008;11.144;2024-03-02T08:53:01;6.32;;;3.85;;
45642;SDS011;31358;46.008;11.144;2024-03-02T08:55:28;6.90;;;3.15;;
45642;SDS011;31358;46.008;11.144;2024-03-02T08:57:54;6.53;;;3.90;;
45642;SDS011;31358;46.008;11.144;2024-03-02T09:00:20;4.82;;;2.72;;
45642;SDS011;31358;46.008;11.144;2024-03-02T09:02:46;7.53;;;3.65;;
45642;SDS011;31358;46.008;11.144;2024-03-02T09:05:12;7.78;;;3.00;;
45642;SDS011;31358;46.008;11.144;2024-03-02T09:07:38;7.60;;;3.08;;
45642;SDS011;31358;46.008;11.144;2024-03-02T09:10:07;12.02;;;3.97;;
45642;SDS011;31358;46.008;11.144;2024-03-02T09:12:33;7.78;;;3.20;;
45642;SDS011;31358;46.008;11.144;2024-03-02T09:15:00;8.75;;;3.00;;
45642;SDS011;31358;46.008;11.144;2024-03-02T09:17:26;8.50;;;3.28;;
45642;SDS011;31358;46.008;11.144;2024-03-02T09:19:51;7.13;;;3.35;;
45642;SDS011;31358;46.008;11.144;2024-03-02T09:22:18;12.15;;;3.08;;
45642;SDS011;31358;46.008;11.144;2024-03-02T09:24:44;7.30;;;3.17;;
45642;SDS011;31358;46.008;11.144;2024-03-02T09:27:09;6.43;;;2.92;;
45642;SDS011;31358;46.008;11.144;2024-03-02T09:29:35;6.35;;;3.17;;
45642;SDS011;31358;46.008;11.144;2024-03-02T09:32:01;8.13;;;3.20;;
45642;SDS011;31358;46.008;11.144;2024-03-02T09:34:27;8.38;;;3.30;;
45642;SDS011;31358;46.008;11.144;2024-03-02T09:36:53;10.10;;;3.60;;
45642;SDS011;31358;46.008;11.144;2024-03-02T09:39:18;8.75;;;3.47;;
45642;SDS011;31358;46.008;11.144;2024-03-02T09:41:44;9.27;;;3.95;;
45642;SDS011;31358;46.008;11.144;2024-03-02T09:44:10;7.35;;;3.10;;
45642;SDS011;31358;46.008;11.144;2024-03-02T09:46:35;18.10;;;6.63;;
45642;SDS011;31358;46.008;11.144;2024-03-02T09:49:02;12.82;;;5.93;;
45642;SDS011;31358;46.008;11.144;2024-03-02T09:51:28;12.32;;;4.60;;
45642;SDS011;31358;46.008;11.144;2024-03-02T09:53:54;12.77;;;4.15;;
45642;SDS011;31358;46.008;11.144;2024-03-02T09:56:21;11.85;;;4.03;;
45642;SDS011;31358;46.008;11.144;2024-03-02T09:58:47;10.93;;;3.90;;
45642;SDS011;31358;46.008;11.144;2024-03-02T10:01:12;7.72;;;3.88;;
45642;SDS011;31358;46.008;11.144;2024-03-02T10:03:38;8.45;;;3.95;;
45642;SDS011;31358;46.008;11.144;2024-03-02T10:06:20;10.57;;;3.88;;
45642;SDS011;31358;46.008;11.144;2024-03-02T10:08:53;7.93;;;4.43;;
45642;SDS011;31358;46.008;11.144;2024-03-02T10:14:10;12.60;;;3.55;;
45642;SDS011;31358;46.008;11.144;2024-03-02T10:16:37;5.03;;;2.67;;
45642;SDS011;31358;46.008;11.144;2024-03-02T10:19:17;7.65;;;3.20;;
45642;SDS011;31358;46.008;11.144;2024-03-02T10:21:43;9.48;;;2.83;;
45642;SDS011;31358;46.008;11.144;2024-03-02T10:24:13;7.40;;;2.67;;
45642;SDS011;31358;46.008;11.144;2024-03-02T10:26:39;13.00;;;4.18;;
45642;SDS011;31358;46.008;11.144;2024-03-02T10:29:06;8.02;;;3.20;;
45642;SDS011;31358;46.008;11.144;2024-03-02T10:31:33;10.82;;;4.05;;
45642;SDS011;31358;46.008;11.144;2024-03-02T10:34:00;15.95;;;7.13;;
45642;SDS011;31358;46.008;11.144;2024-03-02T10:36:27;13.80;;;5.30;;
45642;SDS011;31358;46.008;11.144;2024-03-02T10:38:53;9.27;;;2.80;;
45642;SDS011;31358;46.008;11.144;2024-03-02T10:41:24;5.72;;;2.70;;
45642;SDS011;31358;46.008;11.144;2024-03-02T10:43:55;4.82;;;2.33;;
45642;SDS011;31358;46.008;11.144;2024-03-02T10:46:29;8.13;;;3.47;;
45642;SDS011;31358;46.008;11.144;2024-03-02T10:49:02;13.30;;;5.25;;
45642;SDS011;31358;46.008;11.144;2024-03-02T10:51:30;10.27;;;4.70;;
45642;SDS011;31358;46.008;11.144;2024-03-02T10:53:58;11.82;;;5.40;;
45642;SDS011;31358;46.008;11.144;2024-03-02T10:56:41;15.02;;;5.38;;
45642;SDS011;31358;46.008;11.144;2024-03-02T10:59:28;8.10;;;5.07;;
45642;SDS011;31358;46.008;11.144;2024-03-02T11:02:01;8.80;;;3.47;;
45642;SDS011;31358;46.008;11.144;2024-03-02T11:04:29;15.80;;;3.80;;
45642;SDS011;31358;46.008;11.144;2024-03-02T11:07:05;7.55;;;2.70;;
45642;SDS011;31358;46.008;11.144;2024-03-02T11:09:34;7.70;;;2.55;;
45642;SDS011;31358;46.008;11.144;2024-03-02T11:12:06;9.68;;;2.40;;
45642;SDS011;31358;46.008;11.144;2024-03-02T11:14:40;8.25;;;3.03;;
45642;SDS011;31358;46.008;11.144;2024-03-02T11:17:09;8.32;;;2.40;;
45642;SDS011;31358;46.008;11.144;2024-03-02T11:19:38;6.60;;;2.72;;
45642;SDS011;31358;46.008;11.144;2024-03-02T11:22:04;5.95;;;2.88;;
45642;SDS011;31358;46.008;11.144;2024-03-02T11:24:31;5.63;;;3.03;;
45642;SDS011;31358;46.008;11.144;2024-03-02T11:27:00;7.85;;;2.60;;
45642;SDS011;31358;46.008;11.144;2024-03-02T11:32:02;5.88;;;2.50;;
45642;SDS011;31358;46.008;11.144;2024-03-02T11:34:31;5.47;;;2.15;;
45642;SDS011;31358;46.008;11.144;2024-03-02T11:36:58;7.30;;;2.42;;
45642;SDS011;31358;46.008;11.144;2024-03-02T11:39:26;5.30;;;2.35;;
45642;SDS011;31358;46.008;11.144;2024-03-02T11:41:52;5.53;;;2.38;;
45642;SDS011;31358;46.008;11.144;2024-03-02T11:44:18;4.93;;;2.42;;
45642;SDS011;31358;46.008;11.144;2024-03-02T11:46:45;5.45;;;2.28;;
45642;SDS011;31358;46.008;11.144;2024-03-02T11:49:14;6.43;;;2.80;;
45642;SDS011;31358;46.008;11.144;2024-03-02T11:51:50;7.20;;;2.67;;
45642;SDS011;31358;46.008;11.144;2024-03-02T11:54:26;5.38;;;2.58;;
45642;SDS011;31358;46.008;11.144;2024-03-02T11:56:55;6.43;;;2.97;;
45642;SDS011;31358;46.008;11.144;2024-03-02T11:59:22;6.40;;;2.60;;
45642;SDS011;31358;46.008;11.144;2024-03-02T12:01:49;11.27;;;3.00;;
45642;SDS011;31358;46.008;11.144;2024-03-02T12:04:15;10.13;;;2.53;;
45642;SDS011;31358;46.008;11.144;2024-03-02T12:06:41;4.07;;;1.92;;
45642;SDS011;31358;46.008;11.144;2024-03-02T12:09:09;6.45;;;2.38;;
45642;SDS011;31358;46.008;11.144;2024-03-02T12:11:39;4.97;;;2.03;;
45642;SDS011;31358;46.008;11.144;2024-03-02T12:14:10;5.18;;;2.00;;
45642;SDS011;31358;46.008;11.144;2024-03-02T12:16:37;5.78;;;2.30;;
45642;SDS011;31358;46.008;11.144;2024-03-02T12:19:05;4.97;;;2.00;;
45642;SDS011;31358;46.008;11.144;2024-03-02T12:21:31;9.32;;;1.80;;
45642;SDS011;31358;46.008;11.144;2024-03-02T12:23:57;4.90;;;2.10;;
45642;SDS011;31358;46.008;11.144;2024-03-02T12:26:22;12.13;;;2.90;;
45642;SDS011;31358;46.008;11.144;2024-03-02T12:28:49;5.43;;;3.05;;
45642;SDS011;31358;46.008;11.144;2024-03-02T12:31:15;9.18;;;3.17;;
45642;SDS011;31358;46.008;11.144;2024-03-02T12:33:40;4.88;;;2.10;;
45642;SDS011;31358;46.008;11.144;2024-03-02T12:36:09;6.97;;;2.60;;
45642;SDS011;31358;46.008;11.144;2024-03-02T12:38:43;7.75;;;3.10;;
45642;SDS011;31358;46.008;11.144;2024-03-02T12:41:09;10.32;;;3.17;;
45642;SDS011;31358;46.008;11.144;2024-03-02T12:43:35;6.88;;;2.40;;
45642;SDS011;31358;46.008;11.144;2024-03-02T12:46:00;6.88;;;2.25;;
45642;SDS011;31358;46.008;11.144;2024-03-02T12:48:26;6.38;;;1.98;;
45642;SDS011;31358;46.008;11.144;2024-03-02T12:50:52;4.28;;;1.67;;
45642;SDS011;31358;46.008;11.144;2024-03-02T12:53:18;9.52;;;1.60;;
45642;SDS011;31358;46.008;11.144;2024-03-02T12:55:43;4.22;;;1.10;;
45642;SDS011;31358;46.008;11.144;2024-03-02T12:58:16;3.53;;;0.95;;
45642;SDS011;31358;46.008;11.144;2024-03-02T13:00:44;2.45;;;1.10;;
45642;SDS011;31358;46.008;11.144;2024-03-02T13:03:09;6.13;;;2.80;;
45642;SDS011;31358;46.008;11.144;2024-03-02T13:05:36;5.78;;;2.13;;
45642;SDS011;31358;46.008;11.144;2024-03-02T13:08:02;3.40;;;1.92;;
45642;SDS011;31358;46.008;11.144;2024-03-02T13:10:29;6.38;;;1.52;;
45642;SDS011;31358;46.008;11.144;2024-03-02T13:12:56;5.22;;;1.13;;
45642;SDS011;31358;46.008;11.144;2024-03-02T13:15:21;7.03;;;1.80;;
45642;SDS011;31358;46.008;11.144;2024-03-02T13:17:47;8.38;;;2.25;;
45642;SDS011;31358;46.008;11.144;2024-03-02T13:20:14;4.18;;;1.30;;
45642;SDS011;31358;46.008;11.144;2024-03-02T13:22:40;4.05;;;1.40;;
45642;SDS011;31358;46.008;11.144;2024-03-02T13:25:05;7.20;;;3.08;;
45642;SDS011;31358;46.008;11.144;2024-03-02T13:27:35;6.85;;;2.70;;
45642;SDS011;31358;46.008;11.144;2024-03-02T13:30:03;5.18;;;2.05;;
45642;SDS011;31358;46.008;11.144;2024-03-02T13:32:34;7.35;;;1.95;;
45642;SDS011;31358;46.008;11.144;2024-03-02T13:34:59;8.68;;;2.90;;
45642;SDS011;31358;46.008;11.144;2024-03-02T13:37:25;6.95;;;2.30;;
45642;SDS011;31358;46.008;11.144;2024-03-02T13:39:51;6.63;;;2.42;;
45642;SDS011;31358;46.008;11.144;2024-03-02T13:42:16;6.60;;;2.92;;
45642;SDS011;31358;46.008;11.144;2024-03-02T13:44:43;8.43;;;2.50;;
45642;SDS011;31358;46.008;11.144;2024-03-02T13:47:12;5.20;;;1.90;;
45642;SDS011;31358;46.008;11.144;2024-03-02T13:49:37;3.63;;;1.48;;
45642;SDS011;31358;46.008;11.144;2024-03-02T13:52:08;3.40;;;1.67;;
45642;SDS011;31358;46.008;11.144;2024-03-02T13:54:42;3.67;;;1.70;;
45642;SDS011;31358;46.008;11.144;2024-03-02T13:57:09;3.58;;;1.33;;
45642;SDS011;31358;46.008;11.144;2024-03-02T13:59:35;4.53;;;2.42;;
45642;SDS011;31358;46.008;11.144;2024-03-02T14:02:02;4.00;;;1.58;;
45642;SDS011;31358;46.008;11.144;2024-03-02T14:04:32;6.55;;;1.40;;
45642;SDS011;31358;46.008;11.144;2024-03-02T14:06:58;3.47;;;1.30;;
45642;SDS011;31358;46.008;11.144;2024-03-02T14:09:24;2.40;;;1.13;;
45642;SDS011;31358;46.008;11.144;2024-03-02T14:11:50;9.18;;;3.10;;
45642;SDS011;31358;46.008;11.144;2024-03-02T14:14:17;5.97;;;2.90;;
45642;SDS011;31358;46.008;11.144;2024-03-02T14:16:43;5.07;;;2.17;;
45642;SDS011;31358;46.008;11.144;2024-03-02T14:19:10;3.92;;;1.90;;
45642;SDS011;31358;46.008;11.144;2024-03-02T14:21:37;3.03;;;1.20;;
45642;SDS011;31358;46.008;11.144;2024-03-02T14:24:03;4.57;;;1.50;;
45642;SDS011;31358;46.008;11.144;2024-03-02T14:26:29;2.53;;;0.95;;
45642;SDS011;31358;46.008;11.144;2024-03-02T14:28:55;2.85;;;1.02;;
45642;SDS011;31358;46.008;11.144;2024-03-02T14:31:20;2.20;;;0.93;;
45642;SDS011;31358;46.008;11.144;2024-03-02T14:33:46;2.15;;;0.70;;
45642;SDS011;31358;46.008;11.144;2024-03-02T14:36:12;3.70;;;1.27;;
45642;SDS011;31358;46.008;11.144;2024-03-02T14:38:38;7.30;;;1.73;;
45642;SDS011;31358;46.008;11.144;2024-03-02T14:41:04;2.95;;;1.30;;